sensor_id;sensor_type;location;lat;lon;timestamp;P1;durP1;ratioP1;P2;durP2;ratioP2
61640;SDS011;62201;49.966;8.342;2024-02-21T00:00:37;17.27;;;5.03;;
61640;SDS011;62201;49.966;8.342;2024-02-21T00:03:06;18.23;;;5.00;;
61640;SDS011;62201;49.966;8.342;2024-02-21T00:05:32;14.23;;;4.77;;
61640;SDS011;62201;49.966;8.342;2024-02-21T00:07:58;16.63;;;4.87;;
61640;SDS011;62201;49.966;8.342;2024-02-21T00:10:24;18.73;;;4.83;;
61640;SDS011;62201;49.966;8.342;2024-02-21T00:12:50;17.47;;;5.03;;
61640;SDS011;62201;49.966;8.342;2024-02-21T00:15:16;19.00;;;5.33;;
61640;SDS011;62201;49.966;8.342;2024-02-21T00:17:42;14.00;;;4.40;;
61640;SDS011;62201;49.966;8.342;2024-02-21T00:20:08;15.60;;;4.73;;
61640;SDS011;62201;49.966;8.342;2024-02-21T00:22:34;15.17;;;5.47;;
61640;SDS011;62201;49.966;8.342;2024-02-21T00:25:00;14.77;;;5.40;;
61640;SDS011;62201;49.966;8.342;2024-02-21T00:27:25;17.97;;;4.97;;
61640;SDS011;62201;49.966;8.342;2024-02-21T00:29:50;16.97;;;5.07;;
61640;SDS011;62201;49.966;8.342;2024-02-21T00:32:16;17.50;;;5.33;;
61640;SDS011;62201;49.966;8.342;2024-02-21T00:34:41;18.57;;;5.63;;
61640;SDS011;62201;49.966;8.342;2024-02-21T00:37:07;16.33;;;4.97;;
61640;SDS011;62201;49.966;8.342;2024-02-21T00:39:32;15.37;;;4.97;;
61640;SDS011;62201;49.966;8.342;2024-02-21T00:41:57;15.30;;;5.03;;
61640;SDS011;62201;49.966;8.342;2024-02-21T00:44:23;21.43;;;6.33;;
61640;SDS011;62201;49.966;8.342;2024-02-21T00:46:48;17.37;;;5.30;;
61640;SDS011;62201;49.966;8.342;2024-02-21T00:49:13;18.17;;;5.77;;
61640;SDS011;62201;49.966;8.342;2024-02-21T00:51:39;16.43;;;5.70;;
61640;SDS011;62201;49.966;8.342;2024-02-21T00:54:04;13.53;;;4.53;;
61640;SDS011;62201;49.966;8.342;2024-02-21T00:56:31;17.20;;;5.63;;
61640;SDS011;62201;49.966;8.342;2024-02-21T00:58:56;13.80;;;4.60;;
61640;SDS011;62201;49.966;8.342;2024-02-21T01:01:22;18.90;;;5.53;;
61640;SDS011;62201;49.966;8.342;2024-02-21T01:03:49;16.33;;;5.13;;
61640;SDS011;62201;49.966;8.342;2024-02-21T01:06:14;17.17;;;6.53;;
61640;SDS011;62201;49.966;8.342;2024-02-21T01:08:39;17.40;;;5.50;;
61640;SDS011;62201;49.966;8.342;2024-02-21T01:11:05;18.73;;;5.63;;
61640;SDS011;62201;49.966;8.342;2024-02-21T01:13:30;18.17;;;5.10;;
61640;SDS011;62201;49.966;8.342;2024-02-21T01:15:55;18.13;;;5.90;;
61640;SDS011;62201;49.966;8.342;2024-02-21T01:18:21;20.03;;;5.53;;
61640;SDS011;62201;49.966;8.342;2024-02-21T01:20:46;15.13;;;5.50;;
61640;SDS011;62201;49.966;8.342;2024-02-21T01:23:11;19.93;;;5.40;;
61640;SDS011;62201;49.966;8.342;2024-02-21T01:25:37;15.73;;;5.10;;
61640;SDS011;62201;49.966;8.342;2024-02-21T01:28:02;15.20;;;5.33;;
61640;SDS011;62201;49.966;8.342;2024-02-21T01:30:28;16.70;;;5.37;;
61640;SDS011;62201;49.966;8.342;2024-02-21T01:32:53;15.33;;;4.90;;
61640;SDS011;62201;49.966;8.342;2024-02-21T01:35:18;15.47;;;4.70;;
61640;SDS011;62201;49.966;8.342;2024-02-21T01:37:44;14.07;;;4.97;;
61640;SDS011;62201;49.966;8.342;2024-02-21T01:40:09;13.50;;;4.37;;
61640;SDS011;62201;49.966;8.342;2024-02-21T01:42:39;18.13;;;5.00;;
61640;SDS011;62201;49.966;8.342;2024-02-21T01:45:05;21.27;;;5.00;;
61640;SDS011;62201;49.966;8.342;2024-02-21T01:47:31;15.93;;;4.47;;
61640;SDS011;62201;49.966;8.342;2024-02-21T01:49:57;15.23;;;5.13;;
61640;SDS011;62201;49.966;8.342;2024-02-21T01:52:22;14.17;;;5.03;;
61640;SDS011;62201;49.966;8.342;2024-02-21T01:54:48;15.80;;;4.27;;
61640;SDS011;62201;49.966;8.342;2024-02-21T01:57:14;15.77;;;4.90;;
61640;SDS011;62201;49.966;8.342;2024-02-21T01:59:39;17.03;;;4.37;;
61640;SDS011;62201;49.966;8.342;2024-02-21T02:02:05;15.83;;;5.20;;
61640;SDS011;62201;49.966;8.342;2024-02-21T02:04:31;15.83;;;4.40;;
61640;SDS011;62201;49.966;8.342;2024-02-21T02:06:57;17.47;;;4.73;;
61640;SDS011;62201;49.966;8.342;2024-02-21T02:09:25;14.83;;;4.67;;
61640;SDS011;62201;49.966;8.342;2024-02-21T02:11:51;11.20;;;3.90;;
61640;SDS011;62201;49.966;8.342;2024-02-21T02:14:16;12.03;;;4.03;;
61640;SDS011;62201;49.966;8.342;2024-02-21T02:16:41;14.80;;;4.43;;
61640;SDS011;62201;49.966;8.342;2024-02-21T02:19:10;14.80;;;4.10;;
61640;SDS011;62201;49.966;8.342;2024-02-21T02:21:39;17.57;;;4.27;;
61640;SDS011;62201;49.966;8.342;2024-02-21T02:24:07;15.60;;;4.80;;
61640;SDS011;62201;49.966;8.342;2024-02-21T02:26:32;13.13;;;4.30;;
61640;SDS011;62201;49.966;8.342;2024-02-21T02:28:58;16.33;;;5.27;;
61640;SDS011;62201;49.966;8.342;2024-02-21T02:31:23;14.60;;;4.30;;
61640;SDS011;62201;49.966;8.342;2024-02-21T02:33:49;16.23;;;4.60;;
61640;SDS011;62201;49.966;8.342;2024-02-21T02:36:15;16.40;;;5.07;;
61640;SDS011;62201;49.966;8.342;2024-02-21T02:38:40;18.93;;;5.00;;
61640;SDS011;62201;49.966;8.342;2024-02-21T02:41:05;18.03;;;4.67;;
61640;SDS011;62201;49.966;8.342;2024-02-21T02:43:31;18.17;;;4.97;;
61640;SDS011;62201;49.966;8.342;2024-02-21T02:45:56;13.80;;;4.27;;
61640;SDS011;62201;49.966;8.342;2024-02-21T02:48:22;15.23;;;4.23;;
61640;SDS011;62201;49.966;8.342;2024-02-21T02:50:47;19.10;;;4.80;;
61640;SDS011;62201;49.966;8.342;2024-02-21T02:53:14;19.00;;;5.40;;
61640;SDS011;62201;49.966;8.342;2024-02-21T02:55:39;17.80;;;4.07;;
61640;SDS011;62201;49.966;8.342;2024-02-21T02:58:05;18.23;;;4.33;;
61640;SDS011;62201;49.966;8.342;2024-02-21T03:00:30;16.90;;;4.23;;
61640;SDS011;62201;49.966;8.342;2024-02-21T03:02:56;15.90;;;4.57;;
61640;SDS011;62201;49.966;8.342;2024-02-21T03:05:21;17.13;;;4.20;;
61640;SDS011;62201;49.966;8.342;2024-02-21T03:07:47;15.37;;;4.70;;
61640;SDS011;62201;49.966;8.342;2024-02-21T03:10:13;15.03;;;4.53;;
61640;SDS011;62201;49.966;8.342;2024-02-21T03:12:41;17.80;;;4.53;;
61640;SDS011;62201;49.966;8.342;2024-02-21T03:15:07;16.73;;;5.20;;
61640;SDS011;62201;49.966;8.342;2024-02-21T03:17:33;15.80;;;4.70;;
61640;SDS011;62201;49.966;8.342;2024-02-21T03:20:02;20.27;;;5.57;;
61640;SDS011;62201;49.966;8.342;2024-02-21T03:22:34;14.95;;;4.68;;
61640;SDS011;62201;49.966;8.342;2024-02-21T03:24:59;15.03;;;5.13;;
61640;SDS011;62201;49.966;8.342;2024-02-21T03:27:25;20.10;;;5.40;;
61640;SDS011;62201;49.966;8.342;2024-02-21T03:29:56;18.60;;;5.50;;
61640;SDS011;62201;49.966;8.342;2024-02-21T03:32:22;15.13;;;4.80;;
61640;SDS011;62201;49.966;8.342;2024-02-21T03:34:47;13.30;;;4.33;;
61640;SDS011;62201;49.966;8.342;2024-02-21T03:37:12;15.67;;;5.03;;
61640;SDS011;62201;49.966;8.342;2024-02-21T03:39:38;13.97;;;4.30;;
61640;SDS011;62201;49.966;8.342;2024-02-21T03:42:05;17.60;;;4.83;;
61640;SDS011;62201;49.966;8.342;2024-02-21T03:44:31;15.60;;;4.77;;
61640;SDS011;62201;49.966;8.342;2024-02-21T03:46:57;13.23;;;4.10;;
61640;SDS011;62201;49.966;8.342;2024-02-21T03:49:23;15.07;;;4.53;;
61640;SDS011;62201;49.966;8.342;2024-02-21T03:51:48;12.63;;;4.50;;
61640;SDS011;62201;49.966;8.342;2024-02-21T03:54:14;15.47;;;4.53;;
61640;SDS011;62201;49.966;8.342;2024-02-21T03:56:39;16.27;;;4.43;;
61640;SDS011;62201;49.966;8.342;2024-02-21T03:59:05;16.53;;;4.93;;
61640;SDS011;62201;49.966;8.342;2024-02-21T04:01:31;16.23;;;5.33;;
61640;SDS011;62201;49.966;8.342;2024-02-21T04:03:56;17.77;;;5.60;;
61640;SDS011;62201;49.966;8.342;2024-02-21T04:06:22;14.73;;;4.90;;
61640;SDS011;62201;49.966;8.342;2024-02-21T04:08:47;17.70;;;5.47;;
61640;SDS011;62201;49.966;8.342;2024-02-21T04:11:12;13.87;;;4.93;;
61640;SDS011;62201;49.966;8.342;2024-02-21T04:13:38;13.13;;;4.43;;
61640;SDS011;62201;49.966;8.342;2024-02-21T04:16:03;14.37;;;4.63;;
61640;SDS011;62201;49.966;8.342;2024-02-21T04:18:30;15.53;;;4.67;;
61640;SDS011;62201;49.966;8.342;2024-02-21T04:20:56;12.60;;;4.40;;
61640;SDS011;62201;49.966;8.342;2024-02-21T04:23:21;19.10;;;5.00;;
61640;SDS011;62201;49.966;8.342;2024-02-21T04:25:46;13.80;;;4.43;;
61640;SDS011;62201;49.966;8.342;2024-02-21T04:28:12;17.03;;;5.23;;
61640;SDS011;62201;49.966;8.342;2024-02-21T04:30:37;15.17;;;4.93;;
61640;SDS011;62201;49.966;8.342;2024-02-21T04:33:03;15.67;;;5.30;;
61640;SDS011;62201;49.966;8.342;2024-02-21T04:35:28;16.13;;;5.20;;
61640;SDS011;62201;49.966;8.342;2024-02-21T04:37:54;17.33;;;5.17;;
61640;SDS011;62201;49.966;8.342;2024-02-21T04:40:20;17.13;;;5.33;;
61640;SDS011;62201;49.966;8.342;2024-02-21T04:42:45;15.57;;;4.83;;
61640;SDS011;62201;49.966;8.342;2024-02-21T04:45:10;15.90;;;4.57;;
61640;SDS011;62201;49.966;8.342;2024-02-21T04:47:36;12.87;;;5.10;;
61640;SDS011;62201;49.966;8.342;2024-02-21T04:50:01;12.47;;;4.43;;
61640;SDS011;62201;49.966;8.342;2024-02-21T04:52:27;15.17;;;4.77;;
61640;SDS011;62201;49.966;8.342;2024-02-21T04:54:52;12.50;;;4.50;;
61640;SDS011;62201;49.966;8.342;2024-02-21T04:57:17;11.83;;;4.20;;
61640;SDS011;62201;49.966;8.342;2024-02-21T04:59:43;16.50;;;4.90;;
61640;SDS011;62201;49.966;8.342;2024-02-21T05:02:09;17.57;;;4.37;;
61640;SDS011;62201;49.966;8.342;2024-02-21T05:04:36;15.83;;;4.77;;
61640;SDS011;62201;49.966;8.342;2024-02-21T05:07:03;13.63;;;4.57;;
61640;SDS011;62201;49.966;8.342;2024-02-21T05:09:29;15.20;;;5.37;;
61640;SDS011;62201;49.966;8.342;2024-02-21T05:11:54;16.03;;;5.27;;
61640;SDS011;62201;49.966;8.342;2024-02-21T05:14:19;14.53;;;5.03;;
61640;SDS011;62201;49.966;8.342;2024-02-21T05:16:45;14.37;;;5.13;;
61640;SDS011;62201;49.966;8.342;2024-02-21T05:19:10;15.33;;;6.00;;
61640;SDS011;62201;49.966;8.342;2024-02-21T05:21:35;19.10;;;6.30;;
61640;SDS011;62201;49.966;8.342;2024-02-21T05:24:01;14.40;;;5.03;;
61640;SDS011;62201;49.966;8.342;2024-02-21T05:26:27;15.30;;;5.33;;
61640;SDS011;62201;49.966;8.342;2024-02-21T05:28:52;13.93;;;5.87;;
61640;SDS011;62201;49.966;8.342;2024-02-21T05:31:18;12.00;;;4.90;;
61640;SDS011;62201;49.966;8.342;2024-02-21T05:33:44;16.97;;;5.53;;
61640;SDS011;62201;49.966;8.342;2024-02-21T05:36:10;15.83;;;6.23;;
61640;SDS011;62201;49.966;8.342;2024-02-21T05:38:36;17.87;;;5.90;;
61640;SDS011;62201;49.966;8.342;2024-02-21T05:41:02;16.17;;;6.47;;
61640;SDS011;62201;49.966;8.342;2024-02-21T05:43:27;19.23;;;5.60;;
61640;SDS011;62201;49.966;8.342;2024-02-21T05:45:53;12.63;;;6.20;;
61640;SDS011;62201;49.966;8.342;2024-02-21T05:48:18;15.70;;;5.73;;
61640;SDS011;62201;49.966;8.342;2024-02-21T05:50:43;14.70;;;6.37;;
61640;SDS011;62201;49.966;8.342;2024-02-21T05:53:09;15.43;;;6.23;;
61640;SDS011;62201;49.966;8.342;2024-02-21T05:55:36;15.30;;;5.27;;
61640;SDS011;62201;49.966;8.342;2024-02-21T05:58:01;15.43;;;5.50;;
61640;SDS011;62201;49.966;8.342;2024-02-21T06:00:27;16.43;;;5.80;;
61640;SDS011;62201;49.966;8.342;2024-02-21T06:02:52;16.33;;;6.33;;
61640;SDS011;62201;49.966;8.342;2024-02-21T06:05:18;13.70;;;6.23;;
61640;SDS011;62201;49.966;8.342;2024-02-21T06:07:43;20.33;;;6.67;;
61640;SDS011;62201;49.966;8.342;2024-02-21T06:10:09;16.40;;;6.20;;
61640;SDS011;62201;49.966;8.342;2024-02-21T06:12:34;15.20;;;6.13;;
61640;SDS011;62201;49.966;8.342;2024-02-21T06:14:59;16.93;;;6.40;;
61640;SDS011;62201;49.966;8.342;2024-02-21T06:17:25;17.47;;;6.80;;
61640;SDS011;62201;49.966;8.342;2024-02-21T06:19:50;18.33;;;6.47;;
61640;SDS011;62201;49.966;8.342;2024-02-21T06:22:15;18.67;;;7.53;;
61640;SDS011;62201;49.966;8.342;2024-02-21T06:24:41;14.10;;;7.13;;
61640;SDS011;62201;49.966;8.342;2024-02-21T06:27:06;14.80;;;6.73;;
61640;SDS011;62201;49.966;8.342;2024-02-21T06:29:32;15.80;;;7.30;;
61640;SDS011;62201;49.966;8.342;2024-02-21T06:31:58;16.57;;;6.60;;
61640;SDS011;62201;49.966;8.342;2024-02-21T06:34:23;16.03;;;7.77;;
61640;SDS011;62201;49.966;8.342;2024-02-21T06:36:49;20.03;;;8.03;;
61640;SDS011;62201;49.966;8.342;2024-02-21T06:39:15;14.63;;;7.67;;
61640;SDS011;62201;49.966;8.342;2024-02-21T06:41:40;16.50;;;7.87;;
61640;SDS011;62201;49.966;8.342;2024-02-21T06:44:05;13.13;;;7.27;;
61640;SDS011;62201;49.966;8.342;2024-02-21T06:46:31;15.07;;;7.80;;
61640;SDS011;62201;49.966;8.342;2024-02-21T06:48:58;15.07;;;7.70;;
61640;SDS011;62201;49.966;8.342;2024-02-21T06:51:25;16.37;;;7.87;;
61640;SDS011;62201;49.966;8.342;2024-02-21T06:53:52;15.93;;;7.63;;
61640;SDS011;62201;49.966;8.342;2024-02-21T06:56:18;18.00;;;8.23;;
61640;SDS011;62201;49.966;8.342;2024-02-21T06:58:43;16.60;;;7.90;;
61640;SDS011;62201;49.966;8.342;2024-02-21T07:01:09;25.53;;;8.97;;
61640;SDS011;62201;49.966;8.342;2024-02-21T07:03:35;15.47;;;8.37;;
61640;SDS011;62201;49.966;8.342;2024-02-21T07:06:00;18.70;;;7.80;;
61640;SDS011;62201;49.966;8.342;2024-02-21T07:08:26;20.30;;;8.60;;
61640;SDS011;62201;49.966;8.342;2024-02-21T07:10:52;20.53;;;8.67;;
61640;SDS011;62201;49.966;8.342;2024-02-21T07:13:17;16.23;;;8.10;;
61640;SDS011;62201;49.966;8.342;2024-02-21T07:15:42;19.57;;;8.70;;
61640;SDS011;62201;49.966;8.342;2024-02-21T07:18:08;19.57;;;8.50;;
61640;SDS011;62201;49.966;8.342;2024-02-21T07:20:33;14.67;;;7.70;;
61640;SDS011;62201;49.966;8.342;2024-02-21T07:23:01;20.43;;;8.67;;
61640;SDS011;62201;49.966;8.342;2024-02-21T07:25:27;19.33;;;8.40;;
61640;SDS011;62201;49.966;8.342;2024-02-21T07:27:52;22.07;;;8.17;;
61640;SDS011;62201;49.966;8.342;2024-02-21T07:30:18;17.83;;;6.50;;
61640;SDS011;62201;49.966;8.342;2024-02-21T07:32:43;17.57;;;6.50;;
61640;SDS011;62201;49.966;8.342;2024-02-21T07:35:09;16.60;;;6.60;;
61640;SDS011;62201;49.966;8.342;2024-02-21T07:37:36;16.27;;;5.80;;
61640;SDS011;62201;49.966;8.342;2024-02-21T07:40:02;12.97;;;6.27;;
61640;SDS011;62201;49.966;8.342;2024-02-21T07:42:30;16.17;;;6.00;;
61640;SDS011;62201;49.966;8.342;2024-02-21T07:44:55;20.37;;;6.87;;
61640;SDS011;62201;49.966;8.342;2024-02-21T07:47:21;15.60;;;6.67;;
61640;SDS011;62201;49.966;8.342;2024-02-21T07:49:47;16.87;;;6.80;;
61640;SDS011;62201;49.966;8.342;2024-02-21T07:52:13;13.77;;;5.93;;
61640;SDS011;62201;49.966;8.342;2024-02-21T07:54:39;14.30;;;5.47;;
61640;SDS011;62201;49.966;8.342;2024-02-21T07:57:04;13.90;;;5.10;;
61640;SDS011;62201;49.966;8.342;2024-02-21T07:59:30;14.27;;;5.00;;
61640;SDS011;62201;49.966;8.342;2024-02-21T08:01:56;13.00;;;4.97;;
61640;SDS011;62201;49.966;8.342;2024-02-21T08:04:22;15.63;;;4.53;;
61640;SDS011;62201;49.966;8.342;2024-02-21T08:06:51;15.00;;;4.47;;
61640;SDS011;62201;49.966;8.342;2024-02-21T08:09:18;12.97;;;3.97;;
61640;SDS011;62201;49.966;8.342;2024-02-21T08:11:43;11.33;;;4.10;;
61640;SDS011;62201;49.966;8.342;2024-02-21T08:14:09;11.70;;;3.87;;
61640;SDS011;62201;49.966;8.342;2024-02-21T08:16:34;14.97;;;4.10;;
61640;SDS011;62201;49.966;8.342;2024-02-21T08:19:00;15.53;;;4.33;;
61640;SDS011;62201;49.966;8.342;2024-02-21T08:21:27;11.87;;;3.97;;
61640;SDS011;62201;49.966;8.342;2024-02-21T08:23:53;10.20;;;3.40;;
61640;SDS011;62201;49.966;8.342;2024-02-21T08:26:19;11.83;;;3.80;;
61640;SDS011;62201;49.966;8.342;2024-02-21T08:28:45;11.60;;;3.80;;
61640;SDS011;62201;49.966;8.342;2024-02-21T08:31:10;10.83;;;3.30;;
61640;SDS011;62201;49.966;8.342;2024-02-21T08:33:35;14.23;;;3.83;;
61640;SDS011;62201;49.966;8.342;2024-02-21T08:36:01;18.07;;;3.20;;
61640;SDS011;62201;49.966;8.342;2024-02-21T08:38:26;14.53;;;3.53;;
61640;SDS011;62201;49.966;8.342;2024-02-21T08:40:51;16.20;;;3.77;;
61640;SDS011;62201;49.966;8.342;2024-02-21T08:43:17;10.63;;;3.13;;
61640;SDS011;62201;49.966;8.342;2024-02-21T08:45:42;12.25;;;3.22;;
61640;SDS011;62201;49.966;8.342;2024-02-21T08:48:07;11.67;;;2.97;;
61640;SDS011;62201;49.966;8.342;2024-02-21T08:50:33;13.35;;;3.67;;
61640;SDS011;62201;49.966;8.342;2024-02-21T08:52:58;9.63;;;2.88;;
61640;SDS011;62201;49.966;8.342;2024-02-21T08:55:24;11.50;;;2.85;;
61640;SDS011;62201;49.966;8.342;2024-02-21T08:57:49;14.32;;;3.75;;
61640;SDS011;62201;49.966;8.342;2024-02-21T09:00:15;10.75;;;3.13;;
61640;SDS011;62201;49.966;8.342;2024-02-21T09:02:41;11.45;;;3.60;;
61640;SDS011;62201;49.966;8.342;2024-02-21T09:05:10;11.25;;;3.35;;
61640;SDS011;62201;49.966;8.342;2024-02-21T09:07:36;11.77;;;3.05;;
61640;SDS011;62201;49.966;8.342;2024-02-21T09:10:01;13.27;;;3.70;;
61640;SDS011;62201;49.966;8.342;2024-02-21T09:12:28;11.63;;;3.03;;
61640;SDS011;62201;49.966;8.342;2024-02-21T09:14:54;9.80;;;3.20;;
61640;SDS011;62201;49.966;8.342;2024-02-21T09:17:19;10.70;;;3.42;;
61640;SDS011;62201;49.966;8.342;2024-02-21T09:19:49;10.70;;;3.05;;
61640;SDS011;62201;49.966;8.342;2024-02-21T09:22:15;10.63;;;2.88;;
61640;SDS011;62201;49.966;8.342;2024-02-21T09:24:40;13.15;;;3.40;;
61640;SDS011;62201;49.966;8.342;2024-02-21T09:27:06;12.32;;;3.25;;
61640;SDS011;62201;49.966;8.342;2024-02-21T09:29:31;10.70;;;3.20;;
61640;SDS011;62201;49.966;8.342;2024-02-21T09:31:58;9.40;;;2.60;;
61640;SDS011;62201;49.966;8.342;2024-02-21T09:34:24;11.85;;;3.15;;
61640;SDS011;62201;49.966;8.342;2024-02-21T09:36:49;14.43;;;3.38;;
61640;SDS011;62201;49.966;8.342;2024-02-21T09:39:14;13.27;;;3.65;;
61640;SDS011;62201;49.966;8.342;2024-02-21T09:41:45;10.13;;;3.22;;
61640;SDS011;62201;49.966;8.342;2024-02-21T09:44:17;16.73;;;3.53;;
61640;SDS011;62201;49.966;8.342;2024-02-21T09:46:52;9.13;;;2.88;;
61640;SDS011;62201;49.966;8.342;2024-02-21T09:49:30;12.75;;;3.15;;
61640;SDS011;62201;49.966;8.342;2024-02-21T09:51:57;10.35;;;2.80;;
61640;SDS011;62201;49.966;8.342;2024-02-21T09:54:28;11.23;;;3.05;;
61640;SDS011;62201;49.966;8.342;2024-02-21T09:56:54;10.43;;;3.20;;
61640;SDS011;62201;49.966;8.342;2024-02-21T09:59:19;10.25;;;3.03;;
61640;SDS011;62201;49.966;8.342;2024-02-21T10:01:45;11.80;;;2.78;;
61640;SDS011;62201;49.966;8.342;2024-02-21T10:04:11;11.07;;;3.15;;
61640;SDS011;62201;49.966;8.342;2024-02-21T10:06:37;10.63;;;3.10;;
61640;SDS011;62201;49.966;8.342;2024-02-21T10:09:04;9.82;;;2.97;;
61640;SDS011;62201;49.966;8.342;2024-02-21T10:11:31;10.23;;;2.75;;
61640;SDS011;62201;49.966;8.342;2024-02-21T10:14:05;11.65;;;3.40;;
61640;SDS011;62201;49.966;8.342;2024-02-21T10:16:32;11.65;;;3.33;;
61640;SDS011;62201;49.966;8.342;2024-02-21T10:18:58;11.02;;;3.20;;
61640;SDS011;62201;49.966;8.342;2024-02-21T10:21:23;12.15;;;3.15;;
61640;SDS011;62201;49.966;8.342;2024-02-21T10:23:49;10.18;;;3.42;;
61640;SDS011;62201;49.966;8.342;2024-02-21T10:26:16;12.25;;;3.30;;
61640;SDS011;62201;49.966;8.342;2024-02-21T10:28:42;11.77;;;3.28;;
61640;SDS011;62201;49.966;8.342;2024-02-21T10:31:10;12.82;;;3.90;;
61640;SDS011;62201;49.966;8.342;2024-02-21T10:33:36;11.60;;;3.25;;
61640;SDS011;62201;49.966;8.342;2024-02-21T10:36:09;10.25;;;2.58;;
61640;SDS011;62201;49.966;8.342;2024-02-21T10:41:04;15.38;;;3.28;;
61640;SDS011;62201;49.966;8.342;2024-02-21T10:43:31;11.35;;;2.95;;
61640;SDS011;62201;49.966;8.342;2024-02-21T10:46:02;12.20;;;2.60;;
61640;SDS011;62201;49.966;8.342;2024-02-21T10:48:32;12.77;;;3.30;;
61640;SDS011;62201;49.966;8.342;2024-02-21T10:51:11;9.57;;;2.63;;
61640;SDS011;62201;49.966;8.342;2024-02-21T10:56:30;11.48;;;2.60;;
61640;SDS011;62201;49.966;8.342;2024-02-21T10:59:01;9.10;;;2.60;;
61640;SDS011;62201;49.966;8.342;2024-02-21T11:01:30;12.93;;;2.60;;
61640;SDS011;62201;49.966;8.342;2024-02-21T11:04:00;8.77;;;2.70;;
61640;SDS011;62201;49.966;8.342;2024-02-21T11:06:28;10.07;;;3.08;;
61640;SDS011;62201;49.966;8.342;2024-02-21T11:11:29;9.70;;;2.58;;
61640;SDS011;62201;49.966;8.342;2024-02-21T11:14:05;9.32;;;2.80;;
61640;SDS011;62201;49.966;8.342;2024-02-21T11:16:34;11.38;;;2.67;;
61640;SDS011;62201;49.966;8.342;2024-02-21T11:19:07;10.52;;;3.13;;
61640;SDS011;62201;49.966;8.342;2024-02-21T11:21:35;9.95;;;2.88;;
61640;SDS011;62201;49.966;8.342;2024-02-21T11:24:05;10.10;;;2.90;;
61640;SDS011;62201;49.966;8.342;2024-02-21T11:26:32;8.07;;;2.40;;
61640;SDS011;62201;49.966;8.342;2024-02-21T11:29:01;12.27;;;3.38;;
61640;SDS011;62201;49.966;8.342;2024-02-21T11:31:40;10.93;;;3.03;;
61640;SDS011;62201;49.966;8.342;2024-02-21T11:34:29;11.88;;;2.65;;
61640;SDS011;62201;49.966;8.342;2024-02-21T11:36:53;10.52;;;2.83;;
61640;SDS011;62201;49.966;8.342;2024-02-21T11:39:19;11.45;;;2.72;;
61640;SDS011;62201;49.966;8.342;2024-02-21T11:44:45;7.93;;;2.42;;
61640;SDS011;62201;49.966;8.342;2024-02-21T11:47:10;12.95;;;3.30;;
61640;SDS011;62201;49.966;8.342;2024-02-21T11:49:36;8.73;;;2.72;;
61640;SDS011;62201;49.966;8.342;2024-02-21T11:52:06;10.23;;;2.75;;
61640;SDS011;62201;49.966;8.342;2024-02-21T11:54:32;7.68;;;2.67;;
61640;SDS011;62201;49.966;8.342;2024-02-21T11:56:58;16.02;;;4.10;;
61640;SDS011;62201;49.966;8.342;2024-02-21T11:59:24;11.88;;;3.15;;
61640;SDS011;62201;49.966;8.342;2024-02-21T12:01:50;10.13;;;3.00;;
61640;SDS011;62201;49.966;8.342;2024-02-21T12:04:19;13.50;;;3.15;;
61640;SDS011;62201;49.966;8.342;2024-02-21T12:06:45;8.23;;;2.70;;
61640;SDS011;62201;49.966;8.342;2024-02-21T12:09:17;10.02;;;3.05;;
61640;SDS011;62201;49.966;8.342;2024-02-21T12:11:43;10.98;;;2.72;;
61640;SDS011;62201;49.966;8.342;2024-02-21T12:14:09;10.55;;;2.85;;
61640;SDS011;62201;49.966;8.342;2024-02-21T12:16:35;12.05;;;3.20;;
61640;SDS011;62201;49.966;8.342;2024-02-21T12:19:03;8.65;;;2.63;;
61640;SDS011;62201;49.966;8.342;2024-02-21T12:21:32;9.60;;;2.60;;
61640;SDS011;62201;49.966;8.342;2024-02-21T12:24:23;8.38;;;2.35;;
61640;SDS011;62201;49.966;8.342;2024-02-21T12:26:48;9.63;;;2.42;;
61640;SDS011;62201;49.966;8.342;2024-02-21T12:29:14;11.93;;;3.17;;
61640;SDS011;62201;49.966;8.342;2024-02-21T12:31:40;10.27;;;3.20;;
61640;SDS011;62201;49.966;8.342;2024-02-21T12:34:05;13.15;;;3.63;;
61640;SDS011;62201;49.966;8.342;2024-02-21T12:36:31;10.38;;;2.95;;
61640;SDS011;62201;49.966;8.342;2024-02-21T12:38:57;17.02;;;3.08;;
61640;SDS011;62201;49.966;8.342;2024-02-21T12:41:23;13.50;;;2.85;;
61640;SDS011;62201;49.966;8.342;2024-02-21T12:43:50;9.93;;;2.80;;
61640;SDS011;62201;49.966;8.342;2024-02-21T12:46:16;12.90;;;2.60;;
61640;SDS011;62201;49.966;8.342;2024-02-21T12:48:41;12.38;;;2.90;;
61640;SDS011;62201;49.966;8.342;2024-02-21T12:51:07;8.55;;;2.50;;
61640;SDS011;62201;49.966;8.342;2024-02-21T12:53:33;13.10;;;2.60;;
61640;SDS011;62201;49.966;8.342;2024-02-21T12:55:58;9.00;;;2.30;;
61640;SDS011;62201;49.966;8.342;2024-02-21T12:58:24;8.73;;;2.28;;
61640;SDS011;62201;49.966;8.342;2024-02-21T13:00:49;8.95;;;2.85;;
61640;SDS011;62201;49.966;8.342;2024-02-21T13:03:15;13.30;;;2.72;;
61640;SDS011;62201;49.966;8.342;2024-02-21T13:05:40;8.88;;;2.45;;
61640;SDS011;62201;49.966;8.342;2024-02-21T13:08:06;7.95;;;2.30;;
61640;SDS011;62201;49.966;8.342;2024-02-21T13:10:31;11.15;;;2.75;;
61640;SDS011;62201;49.966;8.342;2024-02-21T13:12:59;7.45;;;2.33;;
61640;SDS011;62201;49.966;8.342;2024-02-21T13:15:24;11.52;;;2.95;;
61640;SDS011;62201;49.966;8.342;2024-02-21T13:17:50;13.70;;;2.25;;
61640;SDS011;62201;49.966;8.342;2024-02-21T13:20:15;10.38;;;2.33;;
61640;SDS011;62201;49.966;8.342;2024-02-21T13:22:41;10.68;;;2.72;;
61640;SDS011;62201;49.966;8.342;2024-02-21T13:25:06;8.20;;;2.15;;
61640;SDS011;62201;49.966;8.342;2024-02-21T13:27:32;10.45;;;2.50;;
61640;SDS011;62201;49.966;8.342;2024-02-21T13:29:58;10.25;;;2.60;;
61640;SDS011;62201;49.966;8.342;2024-02-21T13:32:25;11.82;;;3.00;;
61640;SDS011;62201;49.966;8.342;2024-02-21T13:34:50;9.57;;;2.30;;
61640;SDS011;62201;49.966;8.342;2024-02-21T13:37:17;9.65;;;2.65;;
61640;SDS011;62201;49.966;8.342;2024-02-21T13:39:43;9.10;;;2.58;;
61640;SDS011;62201;49.966;8.342;2024-02-21T13:42:08;11.20;;;2.58;;
61640;SDS011;62201;49.966;8.342;2024-02-21T13:44:33;9.93;;;2.80;;
61640;SDS011;62201;49.966;8.342;2024-02-21T13:46:59;8.77;;;2.65;;
61640;SDS011;62201;49.966;8.342;2024-02-21T13:49:25;9.88;;;2.22;;
61640;SDS011;62201;49.966;8.342;2024-02-21T13:51:50;8.88;;;2.33;;
61640;SDS011;62201;49.966;8.342;2024-02-21T13:54:15;9.57;;;2.20;;
61640;SDS011;62201;49.966;8.342;2024-02-21T13:56:44;8.50;;;2.10;;
61640;SDS011;62201;49.966;8.342;2024-02-21T13:59:10;8.98;;;2.20;;
61640;SDS011;62201;49.966;8.342;2024-02-21T14:01:36;7.93;;;1.73;;
61640;SDS011;62201;49.966;8.342;2024-02-21T14:04:02;8.50;;;1.85;;
61640;SDS011;62201;49.966;8.342;2024-02-21T14:06:29;8.13;;;2.10;;
61640;SDS011;62201;49.966;8.342;2024-02-21T14:08:54;6.20;;;1.75;;
61640;SDS011;62201;49.966;8.342;2024-02-21T14:11:20;9.45;;;2.30;;
61640;SDS011;62201;49.966;8.342;2024-02-21T14:13:45;8.63;;;2.00;;
61640;SDS011;62201;49.966;8.342;2024-02-21T14:16:10;7.45;;;2.10;;
61640;SDS011;62201;49.966;8.342;2024-02-21T14:18:39;8.57;;;1.90;;
61640;SDS011;62201;49.966;8.342;2024-02-21T14:21:08;9.73;;;2.53;;
61640;SDS011;62201;49.966;8.342;2024-02-21T14:23:37;8.48;;;2.17;;
61640;SDS011;62201;49.966;8.342;2024-02-21T14:26:03;7.10;;;2.15;;
61640;SDS011;62201;49.966;8.342;2024-02-21T14:28:29;8.60;;;2.60;;
61640;SDS011;62201;49.966;8.342;2024-02-21T14:30:55;7.90;;;1.85;;
61640;SDS011;62201;49.966;8.342;2024-02-21T14:33:23;8.88;;;2.13;;
61640;SDS011;62201;49.966;8.342;2024-02-21T14:35:49;8.55;;;1.80;;
61640;SDS011;62201;49.966;8.342;2024-02-21T14:38:14;8.18;;;2.13;;
61640;SDS011;62201;49.966;8.342;2024-02-21T14:40:40;8.75;;;1.98;;